Time;durP1;ratioP1;P1;durP2;ratioP2;P2;SDS_P1;SDS_P2;PMS_P1;PMS_P2;Temp;Humidity;BMP_temperature;BMP_pressure;BME280_temperature;BME280_humidity;BME280_pressure;Samples;Min_cycle;Max_cycle;Signal;HPM_P1;HPM_P2
2022/04/17 00:02:01;;;;;;;5.03;3.40;;;4.80;99.90;;;;;;5088004;28;20166;-78
2022/04/17 00:04:27;;;;;;;6.10;4.20;;;4.80;99.90;;;;;;5083691;28;20032;-78
2022/04/17 00:06:53;;;;;;;8.90;4.57;;;4.80;99.90;;;;;;5086492;28;20067;-78
2022/04/17 00:09:19;;;;;;;5.20;4.47;;;4.70;99.90;;;;;;5087796;28;20559;-78
2022/04/17 00:11:45;;;;;;;7.95;4.95;;;4.60;99.90;;;;;;5085988;28;20039;-78
2022/04/17 00:14:10;;;;;;;7.30;4.80;;;4.50;99.90;;;;;;5088633;28;20040;-78
2022/04/17 00:16:37;;;;;;;9.43;4.80;;;4.50;99.90;;;;;;5088300;28;20054;-76
2022/04/17 00:19:02;;;;;;;8.10;4.63;;;4.40;99.90;;;;;;5086679;28;20121;-77
2022/04/17 00:21:28;;;;;;;6.60;4.10;;;4.30;99.90;;;;;;5087901;28;20347;-77
2022/04/17 00:23:53;;;;;;;5.83;4.83;;;4.40;99.90;;;;;;5088913;28;20140;-77
2022/04/17 00:26:19;;;;;;;6.70;4.90;;;4.40;99.90;;;;;;5088884;28;20398;-77
2022/04/17 00:28:45;;;;;;;10.93;6.27;;;4.40;99.90;;;;;;5086483;28;20036;-77
2022/04/17 00:31:10;;;;;;;9.80;6.67;;;4.40;99.90;;;;;;5086518;28;20475;-77
2022/04/17 00:33:36;;;;;;;10.70;5.77;;;4.30;99.90;;;;;;5087885;28;20044;-77
2022/04/17 00:36:02;;;;;;;10.43;6.20;;;4.30;99.90;;;;;;5084699;28;20036;-77
2022/04/17 00:38:27;;;;;;;11.43;7.23;;;4.10;99.90;;;;;;5085374;28;20051;-77
2022/04/17 00:40:56;;;;;;;11.40;6.93;;;4.00;99.90;;;;;;5086331;28;20039;-77
2022/04/17 00:43:27;;;;;;;8.83;6.20;;;4.00;99.90;;;;;;5087576;28;20094;-77
2022/04/17 00:45:53;;;;;;;7.90;5.17;;;3.90;99.90;;;;;;5087829;28;20122;-77
2022/04/17 00:48:19;;;;;;;7.33;5.63;;;3.90;99.90;;;;;;5088612;28;20541;-76
2022/04/17 00:50:46;;;;;;;7.37;5.60;;;3.90;99.90;;;;;;5084024;28;20068;-77
2022/04/17 00:53:12;;;;;;;7.17;5.40;;;3.90;99.90;;;;;;5086334;28;20131;-77
2022/04/17 00:55:39;;;;;;;7.77;4.77;;;3.90;99.90;;;;;;5086418;28;20040;-77
2022/04/17 00:58:05;;;;;;;7.67;4.90;;;4.00;99.90;;;;;;5085830;28;20056;-77
2022/04/17 01:00:33;;;;;;;7.80;5.60;;;4.00;99.90;;;;;;5084252;28;20039;-77
2022/04/17 01:02:59;;;;;;;9.03;4.70;;;4.00;99.90;;;;;;5086687;28;20051;-77
2022/04/17 01:05:24;;;;;;;7.77;5.03;;;4.10;99.90;;;;;;5104421;28;20032;-77
2022/04/17 01:07:51;;;;;;;8.70;4.90;;;4.10;99.90;;;;;;5085051;28;20098;-77
2022/04/17 01:10:17;;;;;;;6.93;5.00;;;4.10;99.90;;;;;;5087631;28;20255;-77
2022/04/17 01:12:43;;;;;;;8.53;5.63;;;4.10;99.90;;;;;;5084694;28;20116;-77
2022/04/17 01:15:10;;;;;;;7.03;5.47;;;4.10;99.90;;;;;;5085621;28;20119;-77
2022/04/17 01:17:36;;;;;;;9.03;5.00;;;4.10;99.90;;;;;;5085536;28;20076;-77
2022/04/17 01:20:03;;;;;;;6.10;4.37;;;4.00;99.90;;;;;;5086910;28;20063;-77
2022/04/17 01:22:29;;;;;;;7.10;5.00;;;4.10;99.90;;;;;;5085876;28;20066;-77
2022/04/17 01:27:39;;;;;;;9.90;5.97;;;4.10;99.90;;;;;;5085318;28;20124;-77
2022/04/17 01:30:05;;;;;;;8.77;5.37;;;4.00;99.90;;;;;;5086147;28;20071;-77
2022/04/17 01:32:30;;;;;;;9.10;4.80;;;4.00;99.90;;;;;;5086173;28;20032;-77
2022/04/17 01:34:56;;;;;;;11.00;6.10;;;4.00;99.90;;;;;;5086834;28;20059;-77
2022/04/17 01:37:22;;;;;;;8.67;6.13;;;4.00;99.90;;;;;;5084037;28;20101;-77
2022/04/17 01:39:48;;;;;;;7.53;5.27;;;4.00;99.90;;;;;;5085812;28;20044;-77
2022/04/17 01:42:14;;;;;;;7.60;5.63;;;4.00;99.90;;;;;;5086775;28;20032;-77
2022/04/17 01:44:39;;;;;;;10.27;6.00;;;4.00;99.90;;;;;;5085082;28;20043;-77
2022/04/17 01:47:05;;;;;;;6.93;5.73;;;3.90;99.90;;;;;;5080154;28;20036;-77
2022/04/17 01:49:31;;;;;;;7.27;5.53;;;3.80;99.90;;;;;;5083526;28;20349;-77
2022/04/17 01:51:57;;;;;;;8.47;5.10;;;3.80;99.90;;;;;;5086243;28;20040;-77
2022/04/17 01:54:25;;;;;;;9.00;5.70;;;3.80;99.90;;;;;;5065572;28;20048;-77
2022/04/17 01:56:51;;;;;;;10.57;7.07;;;3.80;99.90;;;;;;5083754;28;20170;-77
2022/04/17 01:59:21;;;;;;;7.60;5.70;;;3.80;99.90;;;;;;5084981;28;20039;-77
2022/04/17 02:01:48;;;;;;;8.23;6.27;;;3.80;99.90;;;;;;5086420;28;20036;-77
2022/04/17 02:04:14;;;;;;;9.23;6.10;;;3.80;99.90;;;;;;5084308;28;20509;-77
2022/04/17 02:06:40;;;;;;;9.60;5.60;;;3.70;99.90;;;;;;5083966;28;20055;-77
2022/04/17 02:09:08;;;;;;;9.20;5.70;;;3.80;99.90;;;;;;5083393;28;20047;-77
2022/04/17 02:11:34;;;;;;;11.60;6.37;;;3.70;99.90;;;;;;5085564;28;20044;-77
2022/04/17 02:14:00;;;;;;;10.87;6.37;;;3.70;99.90;;;;;;5083180;28;20332;-77
2022/04/17 02:16:26;;;;;;;8.87;5.80;;;3.60;99.90;;;;;;5079949;28;20082;-77
2022/04/17 02:18:54;;;;;;;9.70;7.03;;;3.60;99.90;;;;;;5088095;28;20072;-77
2022/04/17 02:21:21;;;;;;;8.10;5.87;;;3.60;99.90;;;;;;5085062;28;20395;-77
2022/04/17 02:23:47;;;;;;;11.23;6.30;;;3.50;99.90;;;;;;5086573;28;20104;-77
2022/04/17 02:26:16;;;;;;;10.33;6.07;;;3.50;99.90;;;;;;5086520;28;20475;-77
2022/04/17 02:28:41;;;;;;;10.20;6.43;;;3.60;99.90;;;;;;5085107;28;20040;-77
2022/04/17 02:31:08;;;;;;;8.00;6.83;;;3.60;99.90;;;;;;5084734;28;20040;-77
2022/04/17 02:33:36;;;;;;;10.87;7.07;;;3.70;99.90;;;;;;5086289;28;20036;-77
2022/04/17 02:36:01;;;;;;;11.13;6.77;;;3.70;99.90;;;;;;5084156;28;20051;-77
2022/04/17 02:38:27;;;;;;;11.70;5.73;;;3.70;99.90;;;;;;5084706;28;20043;-77
2022/04/17 02:40:54;;;;;;;10.50;6.13;;;3.70;99.90;;;;;;5083088;28;20122;-77
2022/04/17 02:43:19;;;;;;;8.47;6.30;;;3.70;99.90;;;;;;5085613;28;20040;-77
2022/04/17 02:45:45;;;;;;;11.70;8.07;;;3.60;99.90;;;;;;5084315;28;20347;-77
2022/04/17 02:48:11;;;;;;;8.97;6.70;;;3.60;99.90;;;;;;5083768;28;20043;-77
2022/04/17 02:50:36;;;;;;;8.53;5.77;;;3.60;99.90;;;;;;5084081;28;20129;-77
2022/04/17 02:53:02;;;;;;;9.00;6.87;;;3.50;99.90;;;;;;5085627;28;20035;-77
2022/04/17 02:55:28;;;;;;;8.20;6.30;;;3.50;99.90;;;;;;5085555;28;20036;-77
2022/04/17 02:57:54;;;;;;;11.70;7.10;;;3.50;99.90;;;;;;5084368;28;20051;-77
2022/04/17 03:00:21;;;;;;;12.53;6.47;;;3.50;99.90;;;;;;5085458;28;20036;-76
2022/04/17 03:05:37;;;;;;;8.83;6.87;;;3.50;99.90;;;;;;5082297;28;20127;-77
2022/04/17 03:08:04;;;;;;;9.77;7.10;;;3.50;99.90;;;;;;5083055;28;20085;-77
2022/04/17 03:10:30;;;;;;;9.87;6.47;;;3.60;99.90;;;;;;5085920;28;20048;-77
2022/04/17 03:12:56;;;;;;;10.80;6.50;;;3.60;99.90;;;;;;5083683;28;20044;-77
2022/04/17 03:15:22;;;;;;;8.63;7.07;;;3.60;99.90;;;;;;5084617;28;20494;-77
2022/04/17 03:17:48;;;;;;;11.43;7.33;;;3.60;99.90;;;;;;5084219;28;20036;-77
2022/04/17 03:20:14;;;;;;;8.10;6.77;;;3.50;99.90;;;;;;5084131;28;20121;-77
2022/04/17 03:22:42;;;;;;;8.40;6.60;;;3.50;99.90;;;;;;5085158;28;20044;-77
2022/04/17 03:25:09;;;;;;;8.83;6.80;;;3.50;99.90;;;;;;5087535;28;20478;-77
2022/04/17 03:27:35;;;;;;;10.63;7.33;;;3.40;99.90;;;;;;5087166;28;20036;-77
2022/04/17 03:30:01;;;;;;;10.77;6.30;;;3.40;99.90;;;;;;5090538;28;20143;-77
2022/04/17 03:32:26;;;;;;;10.43;6.93;;;3.30;99.90;;;;;;5090279;28;20127;-77
2022/04/17 03:34:52;;;;;;;10.23;7.43;;;3.30;99.90;;;;;;5090476;28;20230;-77
2022/04/17 03:37:18;;;;;;;14.07;7.93;;;3.30;99.90;;;;;;5089878;28;20209;-77
2022/04/17 03:39:48;;;;;;;9.23;7.60;;;3.30;99.90;;;;;;5088790;28;20048;-77
2022/04/17 03:42:15;;;;;;;12.73;6.60;;;3.20;99.90;;;;;;5089793;28;20153;-77
2022/04/17 03:44:41;;;;;;;12.43;8.13;;;3.20;99.90;;;;;;5088179;28;20110;-77
2022/04/17 03:47:06;;;;;;;12.70;7.07;;;3.20;99.90;;;;;;5088810;28;20615;-77
2022/04/17 03:49:32;;;;;;;9.77;6.67;;;3.10;99.90;;;;;;5088193;28;20044;-77
2022/04/17 03:52:00;;;;;;;10.60;7.40;;;3.10;99.90;;;;;;5069587;28;20058;-77
2022/04/17 03:54:26;;;;;;;9.90;7.57;;;3.10;99.90;;;;;;5087166;28;20641;-77
2022/04/17 03:56:52;;;;;;;10.00;7.47;;;3.00;99.90;;;;;;5088097;28;20099;-77
2022/04/17 03:59:18;;;;;;;9.67;7.13;;;3.00;99.90;;;;;;5088586;28;20085;-77
2022/04/17 04:01:46;;;;;;;9.30;6.47;;;3.00;99.90;;;;;;5086422;28;20039;-77
2022/04/17 04:04:12;;;;;;;12.07;7.60;;;2.90;99.90;;;;;;5087914;28;20123;-77
2022/04/17 04:06:37;;;;;;;12.60;7.50;;;2.90;99.90;;;;;;5089183;28;20111;-77
2022/04/17 04:09:03;;;;;;;9.93;7.27;;;2.90;99.90;;;;;;5086051;28;20043;-77
2022/04/17 04:11:29;;;;;;;10.53;7.40;;;2.90;99.90;;;;;;5086628;28;20048;-77
2022/04/17 04:13:55;;;;;;;9.70;7.87;;;2.90;99.90;;;;;;5086709;28;20068;-76
2022/04/17 04:16:20;;;;;;;9.60;7.00;;;2.90;99.90;;;;;;5087228;28;20082;-76
2022/04/17 04:18:46;;;;;;;10.30;6.47;;;2.80;99.90;;;;;;5088638;28;20057;-77
2022/04/17 04:21:12;;;;;;;9.93;6.87;;;2.80;99.90;;;;;;5086106;28;20512;-77
2022/04/17 04:23:38;;;;;;;10.53;7.00;;;2.80;99.90;;;;;;5089338;28;20424;-77
2022/04/17 04:26:04;;;;;;;10.07;7.10;;;2.80;99.90;;;;;;5087768;28;20112;-77
2022/04/17 04:28:34;;;;;;;10.97;7.60;;;2.80;99.90;;;;;;5085756;28;20039;-77
2022/04/17 04:31:00;;;;;;;10.53;7.40;;;2.70;99.90;;;;;;5086140;28;20044;-77
2022/04/17 04:33:26;;;;;;;13.70;7.67;;;2.60;99.90;;;;;;5085120;28;20085;-77
2022/04/17 04:35:51;;;;;;;10.40;7.90;;;2.50;99.90;;;;;;5087393;28;20418;-77
2022/04/17 04:38:17;;;;;;;12.60;7.60;;;2.40;99.90;;;;;;5086464;28;20126;-77
2022/04/17 04:40:43;;;;;;;9.37;7.60;;;2.30;99.90;;;;;;5082699;28;20402;-77
2022/04/17 04:43:08;;;;;;;12.23;7.93;;;2.10;99.90;;;;;;5071580;28;20549;-76
2022/04/17 04:49:29;;;;;;;11.67;7.37;;;2.00;99.90;;;;;;5086877;28;20043;-77
2022/04/17 04:51:04;;;;;;;10.90;7.47;;;2.00;99.90;;;;;;5088434;28;20086;-77
2022/04/17 04:53:29;;;;;;;12.40;8.23;;;2.10;99.90;;;;;;5086177;28;20499;-78
2022/04/17 04:55:55;;;;;;;16.13;8.07;;;2.20;99.90;;;;;;5086795;28;20044;-77
2022/04/17 04:58:20;;;;;;;11.83;8.37;;;2.20;99.90;;;;;;5088073;28;20071;-77
2022/04/17 05:00:46;;;;;;;11.73;7.50;;;2.30;99.90;;;;;;5086165;28;20281;-76
2022/04/17 05:03:12;;;;;;;12.50;8.87;;;2.30;99.90;;;;;;5085619;28;20517;-77
2022/04/17 05:05:37;;;;;;;10.97;7.97;;;2.30;99.90;;;;;;5086183;28;20093;-77
2022/04/17 05:08:04;;;;;;;11.07;8.67;;;2.30;99.90;;;;;;5086158;28;20111;-77
2022/04/17 05:10:30;;;;;;;14.07;8.60;;;2.40;99.90;;;;;;5087838;28;20479;-77
2022/04/17 05:12:55;;;;;;;13.83;9.37;;;2.50;99.90;;;;;;5087349;28;20040;-77
2022/04/17 05:15:22;;;;;;;13.30;9.23;;;2.60;99.90;;;;;;5087730;28;20036;-77
2022/04/17 05:17:48;;;;;;;14.27;10.17;;;2.70;99.90;;;;;;5084676;28;20079;-76
2022/04/17 05:20:14;;;;;;;13.67;10.40;;;2.80;99.90;;;;;;5084848;28;20059;-76
2022/04/17 05:22:40;;;;;;;14.77;10.87;;;2.90;99.90;;;;;;5085971;28;20040;-77
2022/04/17 05:25:06;;;;;;;13.07;9.03;;;3.00;99.90;;;;;;5085876;28;20036;-77
2022/04/17 05:27:32;;;;;;;14.60;10.23;;;3.20;99.90;;;;;;5088382;28;20047;-77
2022/04/17 05:29:57;;;;;;;14.90;11.60;;;3.40;99.90;;;;;;5084216;28;20502;-77
2022/04/17 05:32:23;;;;;;;12.67;10.17;;;3.50;99.90;;;;;;5088216;28;20035;-77
2022/04/17 05:34:48;;;;;;;14.57;11.00;;;3.70;99.90;;;;;;5086511;28;20088;-77
2022/04/17 05:37:15;;;;;;;17.87;11.20;;;3.80;99.90;;;;;;5085707;28;20040;-76
2022/04/17 05:39:41;;;;;;;16.57;12.07;;;3.90;99.90;;;;;;5084275;28;20482;-78
2022/04/17 05:42:07;;;;;;;17.20;11.57;;;4.10;99.90;;;;;;5087483;28;20032;-77
2022/04/17 05:44:35;;;;;;;18.63;11.57;;;4.10;99.90;;;;;;5085052;28;20067;-77
2022/04/17 05:47:01;;;;;;;14.13;10.07;;;4.30;99.90;;;;;;5087147;28;20035;-77
2022/04/17 05:49:26;;;;;;;16.37;11.83;;;4.30;99.90;;;;;;5086125;28;20111;-77
2022/04/17 05:51:53;;;;;;;14.43;10.07;;;4.50;99.90;;;;;;5084942;28;20067;-77
2022/04/17 05:54:19;;;;;;;12.33;10.37;;;4.60;99.90;;;;;;5086252;28;20036;-77
2022/04/17 05:56:45;;;;;;;15.67;10.50;;;4.80;99.90;;;;;;5085797;28;20036;-77
2022/04/17 05:59:10;;;;;;;14.10;10.87;;;4.90;99.90;;;;;;5085289;28;20036;-77
2022/04/17 06:01:36;;;;;;;14.30;10.70;;;5.00;99.90;;;;;;5088616;28;20032;-78
2022/04/17 06:04:02;;;;;;;18.70;12.23;;;5.20;99.90;;;;;;5085299;28;20048;-77
2022/04/17 06:06:27;;;;;;;12.35;9.57;;;5.30;99.90;;;;;;5068445;28;20434;-78
2022/04/17 06:08:53;;;;;;;14.35;10.32;;;5.50;99.90;;;;;;5087477;28;20414;-77
2022/04/17 06:11:18;;;;;;;12.68;10.43;;;5.70;99.90;;;;;;5084886;28;20043;-78
2022/04/17 06:13:44;;;;;;;14.00;10.68;;;5.80;99.90;;;;;;5083109;28;20043;-77
2022/04/17 06:16:09;;;;;;;16.65;11.95;;;5.90;99.90;;;;;;5083146;28;20070;-78
2022/04/17 06:18:35;;;;;;;13.93;9.60;;;6.00;99.90;;;;;;5082819;28;20460;-78
2022/04/17 06:21:01;;;;;;;14.73;10.80;;;6.10;99.90;;;;;;5085878;28;20052;-79
2022/04/17 06:23:28;;;;;;;17.35;11.20;;;6.30;99.90;;;;;;5086101;28;20048;-79
2022/04/17 06:25:53;;;;;;;14.85;10.95;;;6.40;99.90;;;;;;5085995;28;20042;-79
2022/04/17 06:28:19;;;;;;;14.00;10.80;;;6.40;99.90;;;;;;5083075;28;20037;-80
2022/04/17 06:30:44;;;;;;;13.00;10.32;;;6.50;99.90;;;;;;5086356;28;20044;-79
2022/04/17 06:33:10;;;;;;;15.43;10.50;;;6.60;99.90;;;;;;5087432;28;21469;-80
2022/04/17 06:35:35;;;;;;;14.25;10.90;;;6.70;99.90;;;;;;5087465;28;20040;-80
2022/04/17 06:38:02;;;;;;;13.70;11.07;;;6.80;99.90;;;;;;5087802;28;20040;-80
2022/04/17 06:40:31;;;;;;;17.65;11.07;;;7.00;99.90;;;;;;5088307;28;20083;-80
2022/04/17 06:43:00;;;;;;;14.23;10.38;;;7.10;99.90;;;;;;5069743;28;20040;-80
2022/04/17 06:45:26;;;;;;;13.48;9.27;;;7.20;99.90;;;;;;5067565;28;20032;-80
2022/04/17 06:47:52;;;;;;;12.93;10.63;;;7.30;99.90;;;;;;5088392;28;20063;-80
2022/04/17 06:50:19;;;;;;;12.27;10.50;;;7.40;99.90;;;;;;5087474;28;20047;-80
2022/04/17 06:52:44;;;;;;;14.38;9.43;;;7.50;99.90;;;;;;5092546;28;20043;-80
2022/04/17 06:55:11;;;;;;;11.48;9.18;;;7.60;99.90;;;;;;5092829;28;20513;-80
2022/04/17 06:57:39;;;;;;;12.35;9.18;;;7.70;99.90;;;;;;5075453;28;20440;-80
2022/04/17 07:00:07;;;;;;;12.95;9.40;;;7.80;99.90;;;;;;5095937;28;20161;-80
2022/04/17 07:02:32;;;;;;;11.95;10.15;;;7.90;99.90;;;;;;5094715;28;20036;-80
2022/04/17 07:04:58;;;;;;;16.52;10.57;;;8.00;99.90;;;;;;5093487;28;20048;-80
2022/04/17 07:07:23;;;;;;;12.82;9.43;;;8.20;99.90;;;;;;5094687;28;20089;-80
2022/04/17 07:09:49;;;;;;;12.15;9.52;;;8.30;99.90;;;;;;5092773;28;20490;-80
2022/04/17 07:12:16;;;;;;;11.40;8.63;;;8.40;99.90;;;;;;5091574;28;20440;-80
2022/04/17 07:14:41;;;;;;;11.85;8.40;;;8.60;99.90;;;;;;5090930;28;20048;-80
2022/04/17 07:17:07;;;;;;;14.82;9.85;;;8.80;98.20;;;;;;5093999;28;20429;-80
2022/04/17 07:19:33;;;;;;;11.07;8.38;;;9.10;95.50;;;;;;5090973;28;20042;-78
2022/04/17 07:21:58;;;;;;;15.38;8.32;;;9.30;94.00;;;;;;5092191;28;20063;-79
2022/04/17 07:24:24;;;;;;;12.00;8.60;;;9.50;92.40;;;;;;5093924;28;20435;-79
2022/04/17 07:26:53;;;;;;;11.57;8.25;;;9.60;92.00;;;;;;5093676;28;20048;-79
2022/04/17 07:29:23;;;;;;;13.95;9.27;;;9.80;90.80;;;;;;5093270;28;20039;-79
2022/04/17 07:31:53;;;;;;;12.32;9.02;;;9.90;90.10;;;;;;5094084;28;20544;-79
2022/04/17 07:34:19;;;;;;;11.85;7.93;;;10.00;89.50;;;;;;5094129;28;20076;-79
2022/04/17 07:36:47;;;;;;;12.75;7.90;;;10.20;88.30;;;;;;5093666;28;20044;-79
2022/04/17 07:39:16;;;;;;;14.00;7.63;;;10.40;88.50;;;;;;5073574;28;20036;-79
2022/04/17 07:41:43;;;;;;;8.77;6.55;;;10.60;86.30;;;;;;5093779;28;20074;-78
2022/04/17 07:44:11;;;;;;;12.10;7.43;;;10.60;84.20;;;;;;5093608;28;20040;-79
2022/04/17 07:46:38;;;;;;;11.75;7.45;;;10.70;83.70;;;;;;5086638;28;20071;-78
2022/04/17 07:49:04;;;;;;;37.10;21.42;;;10.90;84.70;;;;;;5085698;28;20101;-78
2022/04/17 07:51:29;;;;;;;16.98;9.25;;;11.00;82.90;;;;;;5089748;28;20040;-78
2022/04/17 07:53:55;;;;;;;16.10;9.68;;;11.20;81.40;;;;;;5091444;28;20040;-78
2022/04/17 07:56:21;;;;;;;15.55;10.60;;;11.30;82.60;;;;;;5085609;28;20108;-78
2022/04/17 07:58:46;;;;;;;12.00;9.45;;;11.50;82.80;;;;;;5093186;28;20048;-78
2022/04/17 08:01:14;;;;;;;8.82;7.45;;;11.60;82.60;;;;;;5074537;28;20044;-78
2022/04/17 08:06:06;;;;;;;14.80;7.40;;;11.80;78.90;;;;;;5072709;28;20052;-78
2022/04/17 08:08:33;;;;;;;9.00;6.68;;;11.90;78.30;;;;;;5072679;28;20404;-79
2022/04/17 08:10:59;;;;;;;10.35;6.68;;;12.00;78.60;;;;;;5072615;28;20044;-78
2022/04/17 08:13:24;;;;;;;9.80;6.82;;;12.10;77.10;;;;;;5092526;28;20066;-79
2022/04/17 08:15:50;;;;;;;7.70;6.05;;;12.20;77.40;;;;;;5092593;28;20040;-78
2022/04/17 08:18:16;;;;;;;9.50;7.53;;;12.40;75.40;;;;;;5090732;28;20127;-78
2022/04/17 08:20:42;;;;;;;13.40;6.43;;;12.50;76.10;;;;;;5091149;28;20151;-78
2022/04/17 08:23:07;;;;;;;14.23;7.22;;;12.60;73.30;;;;;;5089014;28;20071;-78
2022/04/17 08:25:33;;;;;;;50.17;27.48;;;12.60;71.10;;;;;;5093038;28;20036;-79
2022/04/17 08:27:59;;;;;;;14.30;8.10;;;12.70;69.60;;;;;;5092747;28;20040;-79
2022/04/17 08:30:27;;;;;;;23.13;14.60;;;12.80;70.30;;;;;;5094315;28;20086;-78
2022/04/17 08:32:53;;;;;;;15.70;10.65;;;12.90;69.40;;;;;;5086218;28;20045;-78
2022/04/17 08:35:19;;;;;;;8.68;6.43;;;13.00;69.60;;;;;;5090846;28;20089;-79
2022/04/17 08:37:45;;;;;;;7.80;5.15;;;13.10;70.30;;;;;;5091764;28;20088;-79
2022/04/17 08:40:12;;;;;;;7.65;4.55;;;13.20;69.00;;;;;;5090774;28;20039;-79
2022/04/17 08:42:39;;;;;;;6.72;3.63;;;13.40;68.60;;;;;;5092182;28;20036;-79
2022/04/17 08:45:07;;;;;;;10.27;4.82;;;13.50;67.40;;;;;;5092045;28;20123;-78
2022/04/17 08:47:33;;;;;;;4.07;2.85;;;13.60;65.70;;;;;;5086819;28;20243;-78
2022/04/17 08:49:59;;;;;;;5.63;3.80;;;13.70;65.60;;;;;;5090534;28;20134;-78
2022/04/17 08:52:26;;;;;;;6.68;4.85;;;13.90;65.30;;;;;;5084462;28;20040;-78
2022/04/17 08:54:53;;;;;;;6.72;4.53;;;13.90;65.20;;;;;;5089356;28;20036;-78
2022/04/17 08:57:20;;;;;;;8.98;4.40;;;14.00;65.10;;;;;;5080828;28;20051;-78
2022/04/17 08:59:46;;;;;;;5.85;4.32;;;14.00;62.40;;;;;;5079184;28;20044;-79
2022/04/17 09:02:12;;;;;;;6.70;4.78;;;14.10;62.50;;;;;;5091779;28;20032;-78
2022/04/17 09:04:41;;;;;;;5.47;4.53;;;14.20;64.10;;;;;;5083462;28;20064;-79
2022/04/17 09:07:09;;;;;;;12.00;6.10;;;14.30;63.70;;;;;;5081149;28;20032;-79
2022/04/17 09:09:39;;;;;;;11.32;5.28;;;14.40;61.70;;;;;;5090815;28;20131;-79
2022/04/17 09:12:06;;;;;;;5.43;4.25;;;14.50;60.60;;;;;;5091753;28;20119;-79
2022/04/17 09:14:36;;;;;;;6.68;4.00;;;14.70;60.20;;;;;;5089259;28;20464;-79
2022/04/17 09:17:07;;;;;;;5.30;3.55;;;14.90;60.20;;;;;;5088464;28;20115;-78
2022/04/17 09:19:33;;;;;;;6.07;3.50;;;14.90;59.50;;;;;;5069216;28;20079;-78
2022/04/17 09:22:01;;;;;;;4.72;3.20;;;15.00;59.10;;;;;;5089876;28;20490;-79
2022/04/17 09:24:26;;;;;;;6.03;4.45;;;15.00;60.00;;;;;;5087435;28;20120;-78
2022/04/17 09:26:57;;;;;;;8.27;4.40;;;15.20;59.00;;;;;;5076245;28;20068;-79
2022/04/17 09:29:23;;;;;;;5.72;3.83;;;15.30;59.50;;;;;;5087481;28;20047;-79
2022/04/17 09:31:56;;;;;;;14.68;5.22;;;15.40;59.70;;;;;;5089009;28;20048;-79
2022/04/17 09:34:22;;;;;;;6.20;3.88;;;15.60;57.90;;;;;;5091217;28;20052;-78
2022/04/17 09:36:52;;;;;;;12.55;4.65;;;15.70;57.80;;;;;;5092015;28;20119;-79
2022/04/17 09:39:20;;;;;;;8.95;3.85;;;15.80;55.20;;;;;;5090403;28;20032;-78
2022/04/17 09:41:54;;;;;;;13.13;4.68;;;15.90;55.50;;;;;;5090250;28;20082;-79
2022/04/17 09:44:45;;;;;;;10.82;5.03;;;16.00;53.90;;;;;;5089392;28;20117;-79
2022/04/17 09:47:12;;;;;;;5.28;4.38;;;16.20;55.10;;;;;;5079102;28;20066;-79
2022/04/17 09:49:57;;;;;;;7.68;4.15;;;16.30;55.80;;;;;;5090490;28;20177;-79
2022/04/17 09:52:25;;;;;;;5.05;3.92;;;16.40;52.20;;;;;;5082792;28;20092;-79
2022/04/17 09:54:52;;;;;;;12.63;4.15;;;16.40;54.00;;;;;;5090404;28;20040;-79
2022/04/17 09:57:28;;;;;;;6.55;3.28;;;16.60;54.10;;;;;;5089965;28;20063;-79
2022/04/17 10:00:04;;;;;;;5.15;3.72;;;16.60;53.00;;;;;;5083645;28;20487;-79
2022/04/17 10:02:31;;;;;;;7.85;3.70;;;16.70;54.90;;;;;;5084805;28;20060;-79
2022/04/17 10:04:57;;;;;;;4.63;3.25;;;16.80;53.50;;;;;;5080683;28;20047;-79
2022/04/17 10:07:25;;;;;;;5.47;3.10;;;17.00;54.10;;;;;;5070222;28;20040;-79
2022/04/17 10:09:51;;;;;;;7.35;3.35;;;17.20;51.50;;;;;;5084726;28;20119;-79
2022/04/17 10:12:19;;;;;;;3.28;1.88;;;17.30;52.40;;;;;;5090336;28;20482;-79
2022/04/17 10:14:50;;;;;;;7.68;1.98;;;17.40;51.30;;;;;;5082163;28;20040;-79
2022/04/17 10:17:20;;;;;;;7.97;3.70;;;17.50;48.80;;;;;;5087681;28;20502;-78
2022/04/17 10:19:47;;;;;;;3.35;2.45;;;17.50;47.70;;;;;;5086574;28;20024;-79
2022/04/17 10:22:18;;;;;;;5.95;3.03;;;17.40;48.30;;;;;;5089523;28;20048;-79
2022/04/17 10:24:51;;;;;;;9.82;3.65;;;17.40;48.60;;;;;;5089098;28;20040;-78
2022/04/17 10:27:22;;;;;;;5.70;4.15;;;17.60;48.50;;;;;;5083406;28;20506;-79
2022/04/17 10:30:03;;;;;;;7.15;3.55;;;17.50;50.30;;;;;;5091180;28;20036;-79
2022/04/17 10:32:40;;;;;;;12.93;4.03;;;17.70;49.30;;;;;;5089956;28;20471;-79
2022/04/17 10:35:45;;;;;;;7.70;3.65;;;17.70;49.80;;;;;;5087720;28;20081;-79
2022/04/17 10:38:26;;;;;;;9.23;3.60;;;17.90;48.60;;;;;;5064570;28;20485;-79
2022/04/17 10:41:03;;;;;;;5.43;2.97;;;18.30;48.60;;;;;;5070770;28;20043;-80
2022/04/17 10:43:42;;;;;;;5.68;3.30;;;18.40;46.30;;;;;;5091031;28;20044;-80
2022/04/17 10:46:08;;;;;;;6.07;3.13;;;18.50;44.50;;;;;;5084923;28;20078;-80
2022/04/17 10:48:42;;;;;;;10.50;4.55;;;18.50;46.70;;;;;;5089379;28;20123;-80
2022/04/17 10:51:31;;;;;;;5.38;2.78;;;18.50;46.10;;;;;;5075661;28;20338;-80
2022/04/17 10:54:07;;;;;;;4.60;3.13;;;18.70;46.80;;;;;;5086715;28;20044;-80
2022/04/17 10:56:35;;;;;;;4.95;2.58;;;18.80;46.50;;;;;;5090624;28;20048;-80
2022/04/17 10:59:05;;;;;;;6.38;3.20;;;18.90;47.30;;;;;;5089695;28;20425;-81
2022/04/17 11:01:43;;;;;;;7.35;2.78;;;19.00;47.60;;;;;;5092134;28;20036;-80
2022/04/17 11:04:31;;;;;;;4.72;2.97;;;19.10;47.90;;;;;;5087398;28;20044;-80
2022/04/17 11:07:06;;;;;;;3.28;2.97;;;19.00;45.90;;;;;;5090358;28;20495;-80
2022/04/17 11:09:34;;;;;;;10.68;4.65;;;19.00;47.30;;;;;;5091055;28;20063;-80
2022/04/17 11:12:17;;;;;;;4.78;3.55;;;19.00;47.00;;;;;;5091762;28;20062;-80
2022/04/17 11:15:01;;;;;;;3.67;2.78;;;19.10;42.50;;;;;;5089459;28;20074;-80
2022/04/17 11:17:32;;;;;;;9.50;4.25;;;19.30;46.30;;;;;;5073535;28;20044;-80
2022/04/17 11:19:59;;;;;;;6.45;2.85;;;19.40;46.60;;;;;;5074713;28;20052;-80
2022/04/17 11:22:42;;;;;;;3.78;3.47;;;19.60;45.40;;;;;;5093736;28;20059;-81
2022/04/17 11:25:12;;;;;;;5.65;3.28;;;19.70;41.90;;;;;;5085416;28;20075;-80
2022/04/17 11:27:50;;;;;;;6.25;3.30;;;19.70;42.50;;;;;;5087357;28;20052;-80
2022/04/17 11:30:15;;;;;;;6.82;3.70;;;19.90;42.90;;;;;;5091665;28;20071;-80
2022/04/17 11:32:40;;;;;;;4.20;3.40;;;20.00;43.80;;;;;;5091588;28;20464;-80
2022/04/17 11:35:08;;;;;;;4.18;3.50;;;20.00;42.80;;;;;;5094807;28;20040;-81
2022/04/17 11:37:34;;;;;;;5.40;4.07;;;19.80;42.90;;;;;;5093948;28;20387;-80
2022/04/17 11:40:14;;;;;;;6.43;3.63;;;19.70;43.40;;;;;;5087227;28;20351;-81
2022/04/17 11:42:46;;;;;;;6.88;3.88;;;19.80;42.20;;;;;;5088211;28;20398;-80
2022/04/17 11:45:14;;;;;;;6.72;4.07;;;20.00;43.60;;;;;;5095898;28;20137;-81
2022/04/17 11:47:44;;;;;;;6.57;3.95;;;20.20;43.00;;;;;;5096147;28;20080;-81
2022/04/17 11:50:11;;;;;;;7.93;4.70;;;20.40;41.80;;;;;;5094399;28;20028;-81
2022/04/17 11:52:38;;;;;;;8.38;4.97;;;20.40;40.80;;;;;;5096433;28;20122;-81
2022/04/17 11:55:05;;;;;;;20.15;4.43;;;20.60;41.70;;;;;;5097132;28;20082;-81
2022/04/17 11:57:32;;;;;;;23.27;5.63;;;20.80;42.20;;;;;;5096946;28;20104;-81
2022/04/17 11:59:58;;;;;;;10.32;4.60;;;21.10;42.10;;;;;;5095461;28;20085;-81
2022/04/17 12:02:26;;;;;;;3.60;2.92;;;21.30;41.30;;;;;;5095200;28;20040;-81
2022/04/17 12:05:12;;;;;;;5.03;2.80;;;21.20;43.00;;;;;;5096777;28;20089;-81
2022/04/17 12:07:38;;;;;;;9.48;3.83;;;21.40;42.10;;;;;;5098695;28;20041;-80
2022/04/17 12:10:09;;;;;;;4.53;3.50;;;21.30;41.90;;;;;;5090831;28;20046;-81
2022/04/17 12:12:39;;;;;;;12.77;4.15;;;21.20;41.20;;;;;;5100419;28;20136;-81
2022/04/17 12:15:06;;;;;;;3.10;2.70;;;21.30;40.00;;;;;;5097383;28;20055;-81
2022/04/17 12:17:34;;;;;;;3.10;2.80;;;21.30;39.20;;;;;;5099214;28;20630;-81
2022/04/17 12:20:00;;;;;;;3.38;2.78;;;20.90;38.00;;;;;;5092348;28;20383;-81
2022/04/17 12:22:27;;;;;;;3.33;2.28;;;20.60;38.10;;;;;;5094184;28;20114;-80
2022/04/17 12:24:53;;;;;;;3.42;2.33;;;20.50;39.30;;;;;;5085360;28;20225;-81
2022/04/17 12:27:20;;;;;;;4.82;3.40;;;20.30;39.00;;;;;;5091922;28;20032;-81
2022/04/17 12:29:58;;;;;;;5.03;3.45;;;20.50;38.20;;;;;;5084272;28;20471;-81
2022/04/17 12:32:26;;;;;;;4.13;2.80;;;20.80;38.80;;;;;;5094183;28;20042;-81
2022/04/17 12:35:03;;;;;;;3.60;2.97;;;20.60;38.50;;;;;;5097867;28;20081;-81
2022/04/17 12:37:32;;;;;;;3.92;3.28;;;20.60;37.60;;;;;;5097002;28;20036;-81
2022/04/17 12:40:12;;;;;;;5.28;3.00;;;20.70;38.80;;;;;;5096572;28;20059;-81
2022/04/17 12:42:40;;;;;;;4.35;3.55;;;21.10;39.90;;;;;;5090650;28;20103;-81
2022/04/17 12:45:07;;;;;;;3.83;3.03;;;21.30;38.90;;;;;;5098463;28;20036;-81
2022/04/17 12:47:38;;;;;;;3.95;3.25;;;21.20;37.20;;;;;;5093948;28;20048;-81
2022/04/17 12:50:05;;;;;;;3.47;2.75;;;21.00;37.00;;;;;;5096406;28;20036;-81
2022/04/17 12:52:31;;;;;;;4.85;3.60;;;20.90;38.00;;;;;;5099209;28;20112;-80
2022/04/17 12:55:05;;;;;;;4.15;2.50;;;20.70;37.50;;;;;;5099908;28;20063;-81
2022/04/17 12:57:30;;;;;;;4.03;3.00;;;20.50;37.70;;;;;;5100886;28;20055;-81
2022/04/17 12:59:56;;;;;;;3.75;2.55;;;20.80;38.00;;;;;;5100276;28;20044;-77